Time;durP1;ratioP1;P1;durP2;ratioP2;P2;SDS_P1;SDS_P2;PMS_P1;PMS_P2;Temp;Humidity;BMP_temperature;BMP_pressure;BME280_temperature;BME280_humidity;BME280_pressure;Samples;Min_cycle;Max_cycle;Signal;HPM_P1;HPM_P2
2021/07/04 00:01:58;;;;;;;17.40;15.70;;;19.00;99.90;;;;;;5032830;28;20087;-61
2021/07/04 00:04:24;;;;;;;17.60;15.98;;;18.90;99.90;;;;;;5032720;28;20034;-61
2021/07/04 00:06:49;;;;;;;17.60;15.95;;;18.90;99.90;;;;;;5032507;28;20120;-61
2021/07/04 00:09:15;;;;;;;16.98;15.48;;;18.90;99.90;;;;;;5032526;28;20041;-61
2021/07/04 00:11:41;;;;;;;17.50;15.90;;;18.90;99.90;;;;;;5032743;28;20045;-61
2021/07/04 00:14:07;;;;;;;17.50;15.93;;;18.90;99.90;;;;;;5032403;28;20037;-62
2021/07/04 00:16:32;;;;;;;17.95;16.25;;;18.90;99.90;;;;;;5032500;28;20080;-62
2021/07/04 00:18:59;;;;;;;16.95;15.45;;;18.90;99.90;;;;;;5032318;28;20033;-61
2021/07/04 00:21:25;;;;;;;16.70;15.13;;;18.80;99.90;;;;;;5032379;28;20128;-61
2021/07/04 00:23:50;;;;;;;16.83;15.32;;;18.80;99.90;;;;;;5032145;28;20474;-61
2021/07/04 00:26:16;;;;;;;17.73;16.05;;;18.80;99.90;;;;;;5046113;28;20441;-61
2021/07/04 00:28:42;;;;;;;16.23;14.68;;;18.70;99.90;;;;;;5052067;28;20475;-61
2021/07/04 00:31:08;;;;;;;16.65;15.15;;;18.70;99.90;;;;;;5051981;28;20045;-61
2021/07/04 00:33:33;;;;;;;18.65;16.88;;;18.70;99.90;;;;;;5051863;28;20048;-61
2021/07/04 00:35:59;;;;;;;17.55;15.85;;;18.70;99.90;;;;;;5052065;28;20071;-61
2021/07/04 00:38:25;;;;;;;17.38;15.65;;;18.70;99.90;;;;;;5051682;28;20544;-61
2021/07/04 00:40:51;;;;;;;16.83;15.32;;;18.70;99.90;;;;;;5050783;28;20075;-61
2021/07/04 00:43:17;;;;;;;17.90;16.10;;;18.60;99.90;;;;;;5051842;28;20056;-61
2021/07/04 00:45:42;;;;;;;15.30;13.95;;;18.60;99.90;;;;;;5051771;28;20064;-61
2021/07/04 00:48:08;;;;;;;16.25;14.70;;;18.60;99.90;;;;;;5050545;28;20075;-61
2021/07/04 00:50:35;;;;;;;17.33;15.73;;;18.60;99.90;;;;;;5051603;28;20338;-62
2021/07/04 00:53:02;;;;;;;16.45;14.88;;;18.60;99.90;;;;;;5051511;28;20052;-62
2021/07/04 00:55:28;;;;;;;16.88;15.35;;;18.60;99.90;;;;;;5051653;28;20505;-61
2021/07/04 00:57:54;;;;;;;15.63;14.25;;;18.60;99.90;;;;;;5051435;28;20067;-61
2021/07/04 01:00:23;;;;;;;16.50;15.00;;;18.60;99.90;;;;;;5051537;28;20051;-61
2021/07/04 01:02:49;;;;;;;17.05;15.40;;;18.60;99.90;;;;;;5051308;28;20036;-61
2021/07/04 01:05:35;;;;;;;21.30;15.75;;;18.60;99.90;;;;;;5051474;28;20146;-61
2021/07/04 01:08:04;;;;;;;16.73;15.13;;;18.60;99.90;;;;;;5051358;28;20091;-61
2021/07/04 01:10:31;;;;;;;16.38;14.93;;;18.60;99.90;;;;;;5051276;28;20757;-61
2021/07/04 01:12:59;;;;;;;17.48;15.88;;;18.60;99.90;;;;;;5051165;28;20037;-61
2021/07/04 01:15:26;;;;;;;16.10;14.73;;;18.50;99.90;;;;;;5051372;28;20033;-62
2021/07/04 01:17:55;;;;;;;17.23;15.63;;;18.60;99.90;;;;;;5033430;28;20483;-61
2021/07/04 01:20:22;;;;;;;16.52;14.93;;;18.50;99.90;;;;;;5051174;28;20474;-61
2021/07/04 01:22:56;;;;;;;16.95;15.35;;;18.50;99.90;;;;;;5051048;28;20041;-61
2021/07/04 01:25:22;;;;;;;16.48;15.00;;;18.50;99.90;;;;;;5044611;28;20034;-61
2021/07/04 01:27:48;;;;;;;16.77;15.30;;;18.50;99.90;;;;;;5031075;28;20068;-61
2021/07/04 01:30:17;;;;;;;18.92;16.98;;;18.50;99.90;;;;;;5030907;28;20132;-61
2021/07/04 01:32:43;;;;;;;17.33;15.82;;;18.50;99.90;;;;;;5030917;28;20052;-61
2021/07/04 01:35:09;;;;;;;17.33;15.73;;;18.50;99.90;;;;;;5030883;28;20390;-61
2021/07/04 01:37:35;;;;;;;16.98;15.43;;;18.50;99.90;;;;;;5030838;28;20029;-61
2021/07/04 01:40:00;;;;;;;19.20;16.77;;;18.50;99.90;;;;;;5029437;28;20458;-61
2021/07/04 01:42:26;;;;;;;18.27;16.58;;;18.50;99.90;;;;;;5030838;28;20475;-61
2021/07/04 01:44:51;;;;;;;17.38;15.88;;;18.40;99.90;;;;;;5031203;28;20047;-61
2021/07/04 01:47:17;;;;;;;17.60;16.02;;;18.40;99.90;;;;;;5030741;28;20065;-61
2021/07/04 01:49:43;;;;;;;18.42;16.65;;;18.40;99.90;;;;;;5030713;28;20041;-61
2021/07/04 01:52:09;;;;;;;18.17;16.42;;;18.40;99.90;;;;;;5030801;28;20038;-62
2021/07/04 01:54:35;;;;;;;16.92;15.43;;;18.40;99.90;;;;;;5030654;28;20037;-61
2021/07/04 01:57:11;;;;;;;16.77;15.18;;;18.40;99.90;;;;;;5030719;28;20077;-61
2021/07/04 01:59:40;;;;;;;18.08;16.33;;;18.30;99.90;;;;;;5030309;28;20049;-61
2021/07/04 02:02:05;;;;;;;17.83;16.23;;;18.20;99.90;;;;;;5030602;28;20039;-61
2021/07/04 02:04:39;;;;;;;19.17;17.17;;;18.20;99.90;;;;;;5030426;28;20127;-62
2021/07/04 02:07:05;;;;;;;18.08;16.48;;;18.10;99.90;;;;;;5030550;28;20041;-61
2021/07/04 02:09:31;;;;;;;19.08;17.25;;;18.20;99.90;;;;;;5030211;28;20041;-61
2021/07/04 02:11:57;;;;;;;18.40;16.50;;;18.10;99.90;;;;;;5030401;28;20486;-62
2021/07/04 02:14:27;;;;;;;19.10;17.25;;;18.10;99.90;;;;;;5030134;28;20128;-61
2021/07/04 02:16:52;;;;;;;18.45;16.65;;;18.20;99.90;;;;;;5030461;28;20045;-62
2021/07/04 02:19:18;;;;;;;19.08;16.55;;;18.10;99.90;;;;;;5030172;28;20441;-61
2021/07/04 02:21:45;;;;;;;18.17;16.30;;;18.10;99.90;;;;;;5030338;28;20087;-61
2021/07/04 02:24:12;;;;;;;19.33;17.50;;;18.10;99.90;;;;;;5030144;28;20100;-61
2021/07/04 02:26:37;;;;;;;18.88;16.98;;;18.10;99.90;;;;;;5047110;28;20479;-62
2021/07/04 02:29:03;;;;;;;18.60;16.70;;;18.10;99.90;;;;;;5049871;28;20116;-61
2021/07/04 02:31:28;;;;;;;24.02;19.15;;;18.10;99.90;;;;;;5032372;28;20545;-61
2021/07/04 02:33:54;;;;;;;18.55;16.75;;;18.10;99.90;;;;;;5050041;28;20043;-61
2021/07/04 02:36:21;;;;;;;19.38;17.48;;;18.10;99.90;;;;;;5050136;28;20043;-61
2021/07/04 02:38:46;;;;;;;19.45;17.55;;;18.10;99.90;;;;;;5049989;28;20120;-61
2021/07/04 02:41:12;;;;;;;21.25;19.08;;;18.10;99.90;;;;;;5049884;28;20547;-61
2021/07/04 02:43:38;;;;;;;19.55;17.65;;;18.10;99.90;;;;;;5049943;28;20503;-61
2021/07/04 02:46:03;;;;;;;21.55;19.38;;;18.00;99.90;;;;;;5050043;28;20056;-61
2021/07/04 02:48:29;;;;;;;20.00;18.02;;;18.10;99.90;;;;;;5050472;28;20037;-61
2021/07/04 02:50:55;;;;;;;19.48;17.63;;;18.10;99.90;;;;;;5049917;28;20048;-61
2021/07/04 02:53:21;;;;;;;20.58;18.67;;;18.00;99.90;;;;;;5050013;28;20037;-61
2021/07/04 02:55:46;;;;;;;20.77;18.67;;;18.00;99.90;;;;;;5049802;28;20118;-61
2021/07/04 02:58:12;;;;;;;20.13;18.30;;;18.00;99.90;;;;;;5049898;28;20414;-61
2021/07/04 03:00:40;;;;;;;19.55;17.75;;;18.00;99.90;;;;;;5049655;28;20116;-61
2021/07/04 03:03:06;;;;;;;21.45;19.05;;;18.00;99.90;;;;;;5050036;28;20037;-61
2021/07/04 03:05:32;;;;;;;20.67;18.73;;;18.00;99.90;;;;;;5049705;28;20094;-61
2021/07/04 03:07:58;;;;;;;20.58;18.60;;;18.00;99.90;;;;;;5049815;28;20105;-61
2021/07/04 03:10:23;;;;;;;20.48;18.52;;;18.00;99.90;;;;;;5031634;28;20494;-62
2021/07/04 03:12:50;;;;;;;21.42;19.42;;;18.00;99.90;;;;;;5053345;28;20049;-61
2021/07/04 03:15:16;;;;;;;20.23;18.42;;;18.00;99.90;;;;;;5053310;28;20163;-61
2021/07/04 03:17:42;;;;;;;20.73;18.67;;;18.00;99.90;;;;;;5053506;28;20032;-61
2021/07/04 03:20:13;;;;;;;21.48;19.23;;;18.00;99.90;;;;;;5053243;28;20041;-61
2021/07/04 03:22:38;;;;;;;20.60;18.60;;;18.00;99.90;;;;;;5053409;28;20037;-61
2021/07/04 03:25:06;;;;;;;22.50;20.17;;;18.00;99.90;;;;;;5048737;28;20042;-61
2021/07/04 03:27:37;;;;;;;21.63;19.57;;;18.00;99.90;;;;;;5033546;28;20037;-61
2021/07/04 03:30:06;;;;;;;22.15;20.02;;;18.00;99.90;;;;;;5032964;28;20045;-61
2021/07/04 03:32:32;;;;;;;22.42;20.30;;;18.00;99.90;;;;;;5033200;28;20049;-61
2021/07/04 03:34:57;;;;;;;21.15;19.27;;;18.00;99.90;;;;;;5033222;28;20037;-61
2021/07/04 03:37:23;;;;;;;20.98;19.17;;;18.10;99.90;;;;;;5033214;28;20069;-61
2021/07/04 03:39:49;;;;;;;22.23;20.13;;;18.10;99.90;;;;;;5032998;28;20140;-62
2021/07/04 03:42:15;;;;;;;23.60;20.92;;;18.10;99.90;;;;;;5033373;28;20103;-61
2021/07/04 03:44:41;;;;;;;23.17;20.77;;;18.00;99.90;;;;;;5033035;28;20053;-61
2021/07/04 03:47:07;;;;;;;20.90;18.92;;;18.00;99.90;;;;;;5015378;28;20128;-61
2021/07/04 03:49:32;;;;;;;21.65;19.65;;;18.10;99.90;;;;;;5032869;28;20257;-61
2021/07/04 03:51:58;;;;;;;22.70;20.48;;;18.10;99.90;;;;;;5032865;28;20084;-61
2021/07/04 03:54:25;;;;;;;22.45;20.35;;;18.10;99.90;;;;;;5031649;28;20072;-61
2021/07/04 03:56:51;;;;;;;21.60;19.50;;;18.20;99.90;;;;;;5032663;28;20037;-61
2021/07/04 03:59:16;;;;;;;20.70;18.67;;;18.20;99.90;;;;;;5032853;28;20137;-61
2021/07/04 04:01:42;;;;;;;21.65;19.60;;;18.20;99.90;;;;;;5032543;28;20068;-61
2021/07/04 04:04:09;;;;;;;21.20;19.20;;;18.20;99.90;;;;;;5032718;28;20468;-61
2021/07/04 04:06:35;;;;;;;21.35;19.25;;;18.20;99.90;;;;;;5032497;28;20041;-61
2021/07/04 04:09:01;;;;;;;21.23;19.15;;;18.20;99.90;;;;;;5032609;28;20052;-62
2021/07/04 04:11:26;;;;;;;21.50;19.13;;;18.30;99.90;;;;;;5032326;28;20041;-61
2021/07/04 04:13:52;;;;;;;22.33;20.10;;;18.30;99.90;;;;;;5032562;28;20041;-61
2021/07/04 04:16:17;;;;;;;22.90;20.80;;;18.30;99.90;;;;;;5032268;28;20037;-61
2021/07/04 04:18:44;;;;;;;22.35;20.13;;;18.40;99.90;;;;;;5032436;28;20479;-61
2021/07/04 04:21:10;;;;;;;21.98;19.88;;;18.40;99.90;;;;;;5032189;28;20414;-62
2021/07/04 04:23:35;;;;;;;23.17;20.83;;;18.50;99.90;;;;;;5032237;28;20033;-66
2021/07/04 04:26:03;;;;;;;21.20;19.30;;;18.50;99.90;;;;;;5044105;28;20088;-66
2021/07/04 04:28:32;;;;;;;22.45;20.13;;;18.50;99.90;;;;;;5052156;28;20033;-67
2021/07/04 04:30:58;;;;;;;21.38;19.27;;;18.50;99.90;;;;;;5051935;28;20045;-67
2021/07/04 04:33:24;;;;;;;23.60;21.13;;;18.50;99.90;;;;;;5051999;28;20140;-67
2021/07/04 04:35:50;;;;;;;21.35;19.42;;;18.60;99.90;;;;;;5051952;28;20116;-67
2021/07/04 04:38:16;;;;;;;22.30;20.20;;;18.60;99.90;;;;;;5051834;28;20414;-66
2021/07/04 04:40:42;;;;;;;22.23;20.00;;;18.60;99.90;;;;;;5051669;28;20052;-67
2021/07/04 04:43:07;;;;;;;24.13;21.90;;;18.60;99.90;;;;;;5051822;28;20048;-67
2021/07/04 04:45:33;;;;;;;24.95;22.55;;;18.70;99.90;;;;;;5051709;28;20045;-67
2021/07/04 04:47:59;;;;;;;26.15;23.63;;;18.70;99.90;;;;;;5033832;28;20375;-67
2021/07/04 04:50:25;;;;;;;25.38;22.92;;;18.70;99.90;;;;;;5051670;28;20044;-67
2021/07/04 04:52:50;;;;;;;26.50;23.58;;;18.80;99.90;;;;;;5051492;28;20127;-67
2021/07/04 04:55:16;;;;;;;26.00;23.05;;;18.80;99.90;;;;;;5051671;28;20051;-66
2021/07/04 04:57:42;;;;;;;26.33;23.65;;;18.80;99.90;;;;;;5051385;28;20152;-66
2021/07/04 05:00:11;;;;;;;26.05;23.45;;;18.80;99.90;;;;;;5051554;28;20045;-67
2021/07/04 05:02:37;;;;;;;25.27;23.00;;;18.80;99.90;;;;;;5050059;28;20090;-67
2021/07/04 05:05:05;;;;;;;25.65;23.15;;;18.80;99.90;;;;;;5051389;28;20037;-66
2021/07/04 05:07:30;;;;;;;26.95;24.33;;;18.80;99.90;;;;;;5050259;28;20318;-67
2021/07/04 05:09:56;;;;;;;26.80;24.30;;;18.80;99.90;;;;;;5051299;28;20047;-66
2021/07/04 05:12:22;;;;;;;23.92;21.77;;;18.90;99.90;;;;;;5051159;28;20414;-68
2021/07/04 05:14:47;;;;;;;26.17;23.77;;;18.90;99.90;;;;;;5051298;28;20059;-67
2021/07/04 05:17:13;;;;;;;28.50;25.60;;;19.00;99.90;;;;;;5051155;28;20048;-67
2021/07/04 05:19:39;;;;;;;27.00;24.38;;;19.00;99.90;;;;;;5051149;28;20051;-67
2021/07/04 05:22:04;;;;;;;25.05;22.40;;;18.90;99.90;;;;;;5050886;28;20045;-67
2021/07/04 05:24:30;;;;;;;26.27;23.63;;;19.00;99.90;;;;;;5033219;28;20040;-67
2021/07/04 05:26:56;;;;;;;26.83;24.13;;;18.90;99.90;;;;;;5030051;28;20042;-67
2021/07/04 05:29:22;;;;;;;26.25;23.42;;;18.90;99.90;;;;;;5030960;28;20434;-67
2021/07/04 05:31:48;;;;;;;26.05;23.58;;;18.90;99.90;;;;;;5031344;28;20068;-67
2021/07/04 05:34:13;;;;;;;25.95;23.45;;;19.00;99.90;;;;;;5030418;28;20506;-67
2021/07/04 05:36:39;;;;;;;26.42;23.83;;;19.00;99.90;;;;;;5030857;28;20111;-67
2021/07/04 05:39:05;;;;;;;25.10;22.60;;;19.10;99.90;;;;;;5030875;28;20458;-67
2021/07/04 05:41:30;;;;;;;24.67;22.27;;;19.10;99.90;;;;;;5030858;28;20111;-67
2021/07/04 05:43:56;;;;;;;25.17;22.77;;;19.20;99.90;;;;;;5030825;28;20072;-67
2021/07/04 05:46:22;;;;;;;24.42;21.92;;;19.20;99.90;;;;;;5029649;28;20483;-67
2021/07/04 05:48:50;;;;;;;24.02;21.77;;;19.20;99.90;;;;;;5030580;28;20045;-67
2021/07/04 05:51:15;;;;;;;22.85;20.70;;;19.30;99.90;;;;;;5030613;28;20044;-67
2021/07/04 05:53:41;;;;;;;23.35;21.15;;;19.40;99.90;;;;;;5030509;28;20046;-67
2021/07/04 05:56:07;;;;;;;22.10;19.88;;;19.50;99.90;;;;;;5030628;28;20037;-67
2021/07/04 05:58:33;;;;;;;19.80;17.98;;;19.60;99.90;;;;;;5030592;28;20112;-67
2021/07/04 06:00:59;;;;;;;18.45;16.67;;;19.60;99.90;;;;;;5030732;28;20507;-67
2021/07/04 06:03:25;;;;;;;19.77;17.83;;;19.70;99.90;;;;;;5030532;28;20040;-67
2021/07/04 06:05:50;;;;;;;17.00;15.43;;;19.80;99.90;;;;;;5030757;28;20045;-67
2021/07/04 06:08:16;;;;;;;16.38;14.77;;;19.90;99.90;;;;;;5030309;28;20530;-67
2021/07/04 06:10:44;;;;;;;15.13;13.73;;;19.90;99.90;;;;;;5030448;28;20049;-67
2021/07/04 06:13:10;;;;;;;14.70;13.23;;;20.00;99.90;;;;;;5030248;28;20069;-67
2021/07/04 06:15:36;;;;;;;12.95;11.80;;;20.00;99.90;;;;;;5030432;28;20398;-67
2021/07/04 06:18:02;;;;;;;13.63;12.43;;;20.00;99.90;;;;;;5030264;28;20041;-67
2021/07/04 06:20:27;;;;;;;14.75;13.45;;;20.00;99.90;;;;;;5030318;28;20045;-67
2021/07/04 06:22:56;;;;;;;13.45;12.30;;;20.00;99.90;;;;;;5030397;28;20053;-67
2021/07/04 06:25:22;;;;;;;14.10;12.77;;;20.00;99.90;;;;;;5036753;28;20127;-67
2021/07/04 06:27:49;;;;;;;13.75;12.50;;;19.90;99.90;;;;;;5050061;28;20045;-67
2021/07/04 06:30:15;;;;;;;13.50;12.30;;;20.00;99.90;;;;;;5050044;28;20367;-67
2021/07/04 06:32:42;;;;;;;13.85;12.65;;;19.90;99.90;;;;;;5049989;28;20354;-67
2021/07/04 06:35:10;;;;;;;13.10;11.98;;;19.90;99.90;;;;;;5049970;28;20045;-67
2021/07/04 06:37:36;;;;;;;12.60;11.48;;;19.90;99.90;;;;;;5049914;28;20459;-67
2021/07/04 06:40:05;;;;;;;13.43;12.20;;;20.00;99.90;;;;;;5049856;28;20391;-67
2021/07/04 06:42:30;;;;;;;13.45;12.25;;;19.90;99.90;;;;;;5050376;28;20378;-67
2021/07/04 06:44:56;;;;;;;13.02;11.80;;;19.90;99.90;;;;;;5049907;28;20044;-67
2021/07/04 06:47:21;;;;;;;12.95;11.85;;;20.10;99.90;;;;;;5053155;28;20036;-67
2021/07/04 06:49:47;;;;;;;13.75;12.52;;;20.20;99.90;;;;;;5053767;28;20067;-67
2021/07/04 06:52:13;;;;;;;13.73;12.52;;;20.40;99.90;;;;;;5054028;28;20099;-67
2021/07/04 06:54:38;;;;;;;13.75;12.45;;;20.50;99.90;;;;;;5036051;28;20064;-67
2021/07/04 06:59:48;;;;;;;13.80;12.63;;;20.80;99.90;;;;;;5053705;28;20441;-67
2021/07/04 07:02:14;;;;;;;14.13;12.93;;;20.80;99.90;;;;;;5053729;28;20067;-67
2021/07/04 07:04:39;;;;;;;14.35;13.00;;;20.80;99.90;;;;;;5053837;28;20041;-67
2021/07/04 07:07:05;;;;;;;13.80;12.52;;;20.80;99.90;;;;;;5053702;28;20514;-67
2021/07/04 07:09:30;;;;;;;12.73;11.65;;;20.80;99.90;;;;;;5053423;28;20037;-67
2021/07/04 07:11:56;;;;;;;14.18;12.88;;;20.70;99.90;;;;;;5053675;28;20053;-66
2021/07/04 07:14:22;;;;;;;13.55;12.45;;;20.70;99.90;;;;;;5053286;28;20033;-67
2021/07/04 07:16:48;;;;;;;13.60;12.40;;;20.80;99.90;;;;;;5053687;28;20041;-67
2021/07/04 07:19:14;;;;;;;13.20;11.88;;;20.80;99.90;;;;;;5053288;28;20090;-67
2021/07/04 07:21:41;;;;;;;13.38;12.25;;;20.90;99.90;;;;;;5053436;28;20037;-67
2021/07/04 07:24:08;;;;;;;13.63;12.43;;;20.90;99.90;;;;;;5053153;28;20561;-68
2021/07/04 07:26:34;;;;;;;13.27;12.02;;;20.90;99.90;;;;;;5037007;28;20103;-66
2021/07/04 07:29:00;;;;;;;12.95;11.85;;;21.00;99.90;;;;;;5033741;28;20099;-67
2021/07/04 07:31:26;;;;;;;13.23;12.20;;;21.10;99.90;;;;;;5033470;28;20041;-67
2021/07/04 07:33:52;;;;;;;16.00;12.73;;;21.30;99.90;;;;;;5033289;28;20083;-67
2021/07/04 07:36:18;;;;;;;14.02;12.73;;;21.40;99.90;;;;;;5033444;28;20471;-67
2021/07/04 07:38:43;;;;;;;12.93;11.82;;;21.50;99.90;;;;;;5033043;28;20099;-67
2021/07/04 07:41:09;;;;;;;11.88;10.88;;;21.70;99.90;;;;;;5032962;28;20057;-67
2021/07/04 07:43:35;;;;;;;12.70;11.48;;;22.00;99.90;;;;;;5033035;28;20464;-66
2021/07/04 07:46:00;;;;;;;12.45;11.45;;;22.40;99.90;;;;;;5032997;28;20509;-67
2021/07/04 07:48:26;;;;;;;11.57;10.57;;;22.90;99.90;;;;;;5033078;28;20033;-67
2021/07/04 07:50:52;;;;;;;11.60;10.60;;;23.10;99.90;;;;;;5032692;28;20080;-67
2021/07/04 07:53:18;;;;;;;12.73;11.63;;;23.20;99.90;;;;;;5032977;28;20124;-67
2021/07/04 07:55:43;;;;;;;11.52;10.63;;;23.00;99.90;;;;;;5072002;23;20049;-63
2021/07/04 07:58:10;;;;;;;12.68;11.68;;;22.80;99.90;;;;;;5074442;28;20075;-61
2021/07/04 08:00:35;;;;;;;12.90;11.90;;;22.70;99.90;;;;;;5092833;28;20074;-62
2021/07/04 08:03:01;;;;;;;13.18;12.05;;;22.70;99.90;;;;;;5093362;28;20051;-63
2021/07/04 08:05:26;;;;;;;14.15;13.05;;;22.70;99.90;;;;;;5074818;28;20039;-63
2021/07/04 08:07:52;;;;;;;11.93;10.88;;;22.80;99.90;;;;;;5093005;28;20485;-63
2021/07/04 08:10:18;;;;;;;14.30;13.10;;;22.90;99.90;;;;;;5092735;28;20055;-63
2021/07/04 08:12:44;;;;;;;12.63;11.63;;;23.00;99.90;;;;;;5092830;28;20562;-63
2021/07/04 08:15:11;;;;;;;13.25;12.15;;;23.10;99.90;;;;;;5092657;28;20107;-63
2021/07/04 08:17:36;;;;;;;11.85;10.85;;;23.10;99.90;;;;;;5092837;28;20089;-63
2021/07/04 08:20:04;;;;;;;11.02;10.23;;;23.10;99.90;;;;;;5092661;28;20044;-63
2021/07/04 08:22:30;;;;;;;10.55;9.70;;;23.20;99.90;;;;;;5092651;28;20036;-63
2021/07/04 08:24:55;;;;;;;10.13;9.23;;;23.30;99.90;;;;;;5092745;28;20507;-63
2021/07/04 08:27:21;;;;;;;10.70;9.80;;;23.50;99.90;;;;;;5092338;28;20036;-63
2021/07/04 08:29:47;;;;;;;11.63;10.65;;;23.50;99.90;;;;;;5092257;28;20113;-63
2021/07/04 08:32:13;;;;;;;12.40;11.32;;;23.50;99.90;;;;;;5092302;28;20470;-63
2021/07/04 08:34:38;;;;;;;12.05;11.05;;;23.50;99.90;;;;;;5092224;28;20115;-63
2021/07/04 08:37:04;;;;;;;10.70;9.80;;;23.50;99.90;;;;;;5092483;28;20035;-63
2021/07/04 08:39:31;;;;;;;11.10;10.00;;;23.70;99.90;;;;;;5092063;28;20042;-63
2021/07/04 08:41:57;;;;;;;10.40;9.50;;;23.90;99.90;;;;;;5091964;28;20063;-63
2021/07/04 08:44:23;;;;;;;10.60;9.70;;;24.00;99.00;;;;;;5092085;28;20070;-63
2021/07/04 08:46:48;;;;;;;9.88;9.07;;;24.00;99.70;;;;;;5091810;28;20166;-63
2021/07/04 08:49:14;;;;;;;10.15;9.20;;;24.10;98.60;;;;;;5091971;28;20065;-63
2021/07/04 08:51:41;;;;;;;10.23;9.40;;;24.20;98.80;;;;;;5091686;28;20047;-63
2021/07/04 08:54:07;;;;;;;9.70;8.90;;;24.20;98.90;;;;;;5091859;28;20064;-62
2021/07/04 08:56:33;;;;;;;10.40;9.50;;;24.10;98.70;;;;;;5091542;28;20091;-63
2021/07/04 08:58:59;;;;;;;10.43;9.63;;;24.00;99.20;;;;;;5092071;28;20067;-63
2021/07/04 09:01:28;;;;;;;9.70;8.90;;;23.80;99.30;;;;;;5091581;28;20508;-63
2021/07/04 09:04:07;;;;;;;9.75;8.63;;;23.70;99.40;;;;;;5091801;28;20477;-63
2021/07/04 09:06:39;;;;;;;8.50;7.80;;;23.50;99.40;;;;;;5091538;28;20459;-63
2021/07/04 09:09:16;;;;;;;9.07;8.27;;;23.30;99.60;;;;;;5090734;28;20050;-63
2021/07/04 09:12:01;;;;;;;9.15;8.40;;;23.20;99.60;;;;;;5091418;28;20043;-63
2021/07/04 09:14:37;;;;;;;9.85;9.02;;;23.40;98.90;;;;;;5091741;28;20051;-63
2021/07/04 09:17:11;;;;;;;9.57;8.77;;;23.70;99.90;;;;;;5091649;28;20039;-63
2021/07/04 09:19:39;;;;;;;9.93;9.13;;;24.00;99.40;;;;;;5091534;28;20043;-63
2021/07/04 09:22:10;;;;;;;11.25;10.25;;;24.10;99.40;;;;;;5091296;28;20481;-63
2021/07/04 09:24:38;;;;;;;12.60;11.40;;;24.00;99.30;;;;;;5091333;28;20040;-63
2021/07/04 09:27:05;;;;;;;9.40;8.60;;;24.00;98.70;;;;;;5053125;28;20293;-63
2021/07/04 09:29:42;;;;;;;10.45;9.55;;;23.90;98.60;;;;;;5071058;28;20040;-63
2021/07/04 09:32:13;;;;;;;10.23;9.35;;;23.80;99.00;;;;;;5070906;28;20489;-63
2021/07/04 09:34:40;;;;;;;9.07;8.38;;;23.90;99.90;;;;;;5071053;28;20048;-63
2021/07/04 09:37:06;;;;;;;9.80;9.00;;;24.10;99.40;;;;;;5070975;28;20037;-63
2021/07/04 09:39:32;;;;;;;9.90;9.07;;;24.30;98.50;;;;;;5070964;28;20040;-63
2021/07/04 09:42:06;;;;;;;9.55;8.73;;;24.20;98.10;;;;;;5070691;28;20490;-63
2021/07/04 09:44:32;;;;;;;8.98;8.18;;;24.20;98.40;;;;;;5053030;28;20043;-63
2021/07/04 09:47:18;;;;;;;10.13;8.77;;;24.00;98.80;;;;;;5070832;28;20032;-63
2021/07/04 09:49:44;;;;;;;9.75;8.95;;;24.20;98.60;;;;;;5052732;28;20098;-63
2021/07/04 09:52:21;;;;;;;9.75;8.95;;;24.20;98.00;;;;;;5070757;28;20043;-63
2021/07/04 09:55:19;;;;;;;10.35;9.35;;;24.50;97.50;;;;;;5070349;28;20048;-63
2021/07/04 09:57:57;;;;;;;8.90;8.20;;;24.70;96.40;;;;;;5069911;28;20395;-63
2021/07/04 10:00:26;;;;;;;9.45;8.73;;;24.80;97.10;;;;;;5070456;28;20048;-63
2021/07/04 10:03:13;;;;;;;9.90;9.13;;;25.10;96.80;;;;;;5070172;28;20041;-63
2021/07/04 10:05:44;;;;;;;11.25;10.27;;;25.20;96.20;;;;;;5070478;28;20040;-63
2021/07/04 10:08:24;;;;;;;11.80;10.75;;;25.30;96.40;;;;;;5052380;28;20040;-63
2021/07/04 10:10:53;;;;;;;12.60;11.50;;;25.50;96.80;;;;;;5070327;28;20075;-63
2021/07/04 10:13:18;;;;;;;13.23;12.13;;;25.70;95.80;;;;;;5070119;28;20087;-63
2021/07/04 10:15:44;;;;;;;14.45;13.23;;;25.50;95.60;;;;;;5070285;28;20079;-63
2021/07/04 10:18:12;;;;;;;14.57;13.27;;;25.40;95.80;;;;;;5070300;28;20068;-63
2021/07/04 10:20:39;;;;;;;15.65;14.25;;;25.20;95.90;;;;;;5070129;28;20123;-63
2021/07/04 10:23:17;;;;;;;15.90;14.30;;;25.20;96.20;;;;;;5070211;28;20041;-63
2021/07/04 10:25:43;;;;;;;16.45;15.05;;;25.40;97.00;;;;;;5079501;28;20032;-63
2021/07/04 10:28:12;;;;;;;15.68;14.10;;;25.30;95.00;;;;;;5090078;28;20032;-63
2021/07/04 10:30:39;;;;;;;12.93;11.73;;;25.40;95.30;;;;;;5090296;28;20055;-63
2021/07/04 10:33:21;;;;;;;10.23;9.35;;;25.40;95.30;;;;;;5090147;28;20093;-63
2021/07/04 10:36:14;;;;;;;9.05;7.85;;;25.60;95.60;;;;;;5090278;28;20040;-63
2021/07/04 10:38:41;;;;;;;9.07;8.27;;;25.90;95.40;;;;;;5079530;28;20109;-63
2021/07/04 10:41:08;;;;;;;8.13;7.45;;;26.00;94.80;;;;;;5090247;28;20045;-63
2021/07/04 10:44:06;;;;;;;8.82;8.02;;;25.70;93.30;;;;;;5090277;28;20047;-63
2021/07/04 10:46:41;;;;;;;9.98;9.10;;;25.50;94.90;;;;;;5090201;28;20548;-63
2021/07/04 10:49:12;;;;;;;9.65;8.80;;;25.20;94.50;;;;;;5090132;28;20120;-63
2021/07/04 10:51:53;;;;;;;10.57;9.48;;;25.10;95.40;;;;;;5090163;28;20075;-63
2021/07/04 10:54:47;;;;;;;9.90;9.00;;;25.00;95.30;;;;;;5090229;28;20071;-63
2021/07/04 10:57:25;;;;;;;9.50;8.63;;;24.80;95.90;;;;;;5071937;28;20055;-63
2021/07/04 11:00:06;;;;;;;9.88;8.98;;;24.80;96.40;;;;;;5090006;28;20044;-63
2021/07/04 11:02:54;;;;;;;11.45;10.32;;;24.80;95.90;;;;;;5089979;28;20115;-63
2021/07/04 11:08:07;;;;;;;10.95;9.95;;;24.70;96.70;;;;;;5089850;28;20485;-63
2021/07/04 11:10:34;;;;;;;11.40;10.27;;;25.10;96.20;;;;;;5089893;28;20085;-63
2021/07/04 11:13:09;;;;;;;12.23;10.90;;;25.40;95.30;;;;;;5089731;28;20048;-63
2021/07/04 11:15:37;;;;;;;13.13;11.82;;;25.70;95.70;;;;;;5089993;28;20040;-63
2021/07/04 11:18:04;;;;;;;13.32;11.93;;;25.70;93.90;;;;;;5089595;28;20040;-62
2021/07/04 11:20:31;;;;;;;12.82;11.73;;;25.70;94.10;;;;;;5090086;28;20534;-63
2021/07/04 11:23:07;;;;;;;12.35;11.05;;;25.80;94.40;;;;;;5089969;28;20096;-63
2021/07/04 11:26:01;;;;;;;11.70;10.70;;;26.00;93.40;;;;;;5081698;28;20056;-63
2021/07/04 11:28:29;;;;;;;11.65;10.45;;;26.30;93.50;;;;;;5040808;28;20053;-63
2021/07/04 11:31:07;;;;;;;10.15;9.15;;;26.40;93.80;;;;;;5069417;28;20044;-63
2021/07/04 11:33:40;;;;;;;9.05;8.25;;;25.80;91.90;;;;;;5072553;28;20490;-63
2021/07/04 11:36:15;;;;;;;8.27;7.50;;;25.50;93.40;;;;;;5073175;28;20525;-63
2021/07/04 11:38:47;;;;;;;8.40;7.60;;;25.50;93.60;;;;;;5073032;28;20044;-63
2021/07/04 11:41:21;;;;;;;7.95;7.20;;;25.40;93.20;;;;;;5073065;28;20048;-63
2021/07/04 11:43:49;;;;;;;7.78;7.07;;;25.60;94.00;;;;;;5073151;28;20477;-63
2021/07/04 11:46:17;;;;;;;8.27;7.53;;;25.80;93.70;;;;;;5072991;28;20044;-63
2021/07/04 11:48:52;;;;;;;8.25;7.03;;;25.70;92.70;;;;;;5072810;28;20140;-63
2021/07/04 11:51:27;;;;;;;7.45;6.85;;;25.60;93.10;;;;;;5072907;28;20086;-63
2021/07/04 11:53:55;;;;;;;7.43;6.82;;;25.40;93.60;;;;;;5072710;28;20044;-63
2021/07/04 11:56:21;;;;;;;7.80;7.10;;;25.70;94.20;;;;;;5073013;28;20131;-63
2021/07/04 11:58:46;;;;;;;7.15;6.65;;;26.00;94.10;;;;;;5072601;28;20082;-63
2021/07/04 12:01:21;;;;;;;7.70;7.00;;;26.20;93.40;;;;;;5072717;28;20048;-63
2021/07/04 12:03:57;;;;;;;6.75;6.18;;;26.10;93.50;;;;;;5072520;28;20040;-63
2021/07/04 12:06:23;;;;;;;8.05;7.35;;;26.20;94.30;;;;;;5072854;28;20043;-63
2021/07/04 12:08:53;;;;;;;7.10;6.50;;;26.00;93.40;;;;;;5072574;28;20116;-63
2021/07/04 12:11:19;;;;;;;8.80;8.00;;;26.40;93.20;;;;;;5072564;28;20041;-63
2021/07/04 12:13:46;;;;;;;6.90;6.40;;;26.40;92.60;;;;;;5072526;28;20066;-63
2021/07/04 12:16:12;;;;;;;8.52;7.72;;;26.40;92.90;;;;;;5072408;28;20047;-63
2021/07/04 12:18:39;;;;;;;7.65;7.05;;;26.50;92.10;;;;;;5072298;28;20043;-63
2021/07/04 12:21:05;;;;;;;8.18;7.47;;;26.70;92.00;;;;;;5072275;28;20566;-63
2021/07/04 12:23:31;;;;;;;8.07;7.47;;;26.70;92.10;;;;;;5072258;28;20041;-63
2021/07/04 12:26:05;;;;;;;8.57;7.78;;;26.80;92.20;;;;;;5083540;28;20036;-63
2021/07/04 12:28:31;;;;;;;8.60;7.90;;;27.00;92.10;;;;;;5092336;28;20509;-63
2021/07/04 12:30:56;;;;;;;9.02;8.23;;;26.90;92.20;;;;;;5092171;28;20055;-63
2021/07/04 12:33:25;;;;;;;9.35;8.45;;;26.60;92.80;;;;;;5092383;28;20040;-63
2021/07/04 12:35:56;;;;;;;8.52;7.82;;;26.50;93.10;;;;;;5092071;28;20089;-63
2021/07/04 12:38:30;;;;;;;8.80;8.10;;;26.50;92.20;;;;;;5092287;28;20147;-63
2021/07/04 12:40:57;;;;;;;9.32;8.50;;;26.60;92.60;;;;;;5092005;28;20044;-63